Time;durP1;ratioP1;P1;durP2;ratioP2;P2;SDS_P1;SDS_P2;PMS_P1;PMS_P2;Temp;Humidity;BMP_temperature;BMP_pressure;BME280_temperature;BME280_humidity;BME280_pressure;Samples;Min_cycle;Max_cycle;Signal;HPM_P1;HPM_P2
2023/12/07 00:01:37;;;;;;;6.40;4.35;;;;;;;;;;10554269;28;20040;-74
2023/12/07 00:06:40;;;;;;;6.97;4.63;;;;;;;;;;10547831;28;20147;-74
2023/12/07 00:11:43;;;;;;;5.18;3.72;;;;;;;;;;10541994;28;20040;-74
2023/12/07 00:16:49;;;;;;;5.65;3.80;;;;;;;;;;10563700;28;20047;-75
2023/12/07 00:21:52;;;;;;;7.93;4.50;;;;;;;;;;10559632;28;20031;-74
2023/12/07 00:26:55;;;;;;;6.30;4.00;;;;;;;;;;10551762;28;20044;-74
2023/12/07 00:32:01;;;;;;;6.50;4.30;;;;;;;;;;10563031;28;20760;-74
2023/12/07 00:37:04;;;;;;;6.65;3.63;;;;;;;;;;10552527;28;20039;-74
2023/12/07 00:42:08;;;;;;;5.32;3.92;;;;;;;;;;10544175;28;20048;-74
2023/12/07 00:47:12;;;;;;;6.03;4.05;;;;;;;;;;10550810;28;20139;-74
2023/12/07 00:52:16;;;;;;;5.13;3.58;;;;;;;;;;10556733;28;20523;-74
2023/12/07 00:57:19;;;;;;;9.20;4.25;;;;;;;;;;10528389;28;20049;-74
2023/12/07 01:02:24;;;;;;;6.18;4.00;;;;;;;;;;10547689;28;20044;-74
2023/12/07 01:07:27;;;;;;;7.55;4.45;;;;;;;;;;10527388;28;20040;-75
2023/12/07 01:12:30;;;;;;;7.80;4.55;;;;;;;;;;10544732;28;20143;-74
2023/12/07 01:17:35;;;;;;;7.45;4.45;;;;;;;;;;10549733;28;20032;-74
2023/12/07 01:22:39;;;;;;;5.47;3.70;;;;;;;;;;10556157;28;20045;-74
2023/12/07 01:27:42;;;;;;;4.22;3.22;;;;;;;;;;10554214;28;20055;-75
2023/12/07 01:32:47;;;;;;;5.05;3.60;;;;;;;;;;10547960;28;20448;-75
2023/12/07 01:37:50;;;;;;;5.65;3.42;;;;;;;;;;10556950;28;20032;-75
2023/12/07 01:42:54;;;;;;;5.22;3.60;;;;;;;;;;10549002;28;20483;-75
2023/12/07 01:47:59;;;;;;;5.45;3.33;;;;;;;;;;10556774;28;20488;-74
2023/12/07 01:53:04;;;;;;;5.90;3.10;;;;;;;;;;10555533;28;20134;-74
2023/12/07 01:58:08;;;;;;;6.45;3.95;;;;;;;;;;10545665;28;20183;-76
2023/12/07 02:03:14;;;;;;;6.35;3.60;;;;;;;;;;10553834;28;20043;-74
2023/12/07 02:08:17;;;;;;;5.50;3.20;;;;;;;;;;10560977;28;20442;-74
2023/12/07 02:13:21;;;;;;;7.20;3.83;;;;;;;;;;10549188;28;20044;-74
2023/12/07 02:18:32;;;;;;;4.57;2.90;;;;;;;;;;10544744;28;20039;-74
2023/12/07 02:23:38;;;;;;;5.20;3.47;;;;;;;;;;10544119;28;20032;-74
2023/12/07 02:28:44;;;;;;;5.50;3.70;;;;;;;;;;10547375;28;21435;-75
2023/12/07 02:33:48;;;;;;;4.40;3.20;;;;;;;;;;10546724;28;20062;-75
2023/12/07 02:38:53;;;;;;;3.97;3.20;;;;;;;;;;10548619;28;20059;-75
2023/12/07 02:43:58;;;;;;;4.07;3.30;;;;;;;;;;10506129;28;20045;-75
2023/12/07 02:49:01;;;;;;;4.72;3.17;;;;;;;;;;10500282;28;20044;-74
2023/12/07 02:54:05;;;;;;;3.65;2.83;;;;;;;;;;10500861;28;20114;-74
2023/12/07 02:59:09;;;;;;;3.47;2.85;;;;;;;;;;10495424;28;20402;-74
2023/12/07 03:04:13;;;;;;;7.82;3.53;;;;;;;;;;10505179;28;20524;-74
2023/12/07 03:09:16;;;;;;;5.10;3.15;;;;;;;;;;10501993;28;20127;-74
2023/12/07 03:14:20;;;;;;;5.97;3.67;;;;;;;;;;10504392;28;20036;-75
2023/12/07 03:19:24;;;;;;;4.07;3.17;;;;;;;;;;10503231;28;20029;-74
2023/12/07 03:24:27;;;;;;;5.05;3.45;;;;;;;;;;10502895;28;20053;-74
2023/12/07 03:29:34;;;;;;;5.10;3.17;;;;;;;;;;10510082;28;20539;-74
2023/12/07 03:34:37;;;;;;;5.70;3.58;;;;;;;;;;10497214;28;20109;-74
2023/12/07 03:39:40;;;;;;;4.97;3.67;;;;;;;;;;10503020;28;20226;-74
2023/12/07 03:44:45;;;;;;;3.85;3.40;;;;;;;;;;10501501;28;20141;-75
2023/12/07 03:49:48;;;;;;;4.90;3.30;;;;;;;;;;10504145;28;20505;-74
2023/12/07 03:54:51;;;;;;;7.15;3.65;;;;;;;;;;10511005;28;20504;-74
2023/12/07 03:59:56;;;;;;;5.07;3.78;;;;;;;;;;10508899;28;20702;-74
2023/12/07 04:05:01;;;;;;;4.75;3.53;;;;;;;;;;10516631;28;20043;-74
2023/12/07 04:10:06;;;;;;;5.45;3.75;;;;;;;;;;10505463;28;20079;-75
2023/12/07 04:15:11;;;;;;;4.93;3.30;;;;;;;;;;10508945;28;20405;-75
2023/12/07 04:20:15;;;;;;;4.00;2.73;;;;;;;;;;10507636;28;20052;-74
2023/12/07 04:25:19;;;;;;;4.47;3.13;;;;;;;;;;10509631;28;20301;-75
2023/12/07 04:30:23;;;;;;;4.85;3.70;;;;;;;;;;10511967;28;20047;-75
2023/12/07 04:35:28;;;;;;;4.18;3.08;;;;;;;;;;10510475;28;20428;-74
2023/12/07 04:40:31;;;;;;;5.30;3.63;;;;;;;;;;10509274;28;20064;-75
2023/12/07 04:45:36;;;;;;;6.25;3.70;;;;;;;;;;10503535;28;20050;-74
2023/12/07 04:50:39;;;;;;;5.90;4.18;;;;;;;;;;10519945;28;20068;-74
2023/12/07 04:55:46;;;;;;;5.63;4.25;;;;;;;;;;10567445;28;20488;-74
2023/12/07 05:00:51;;;;;;;4.40;3.60;;;;;;;;;;10558884;28;20036;-74
2023/12/07 05:05:54;;;;;;;6.65;4.57;;;;;;;;;;10553814;28;20056;-74
2023/12/07 05:10:58;;;;;;;6.03;4.55;;;;;;;;;;10559223;28;20510;-74
2023/12/07 05:16:03;;;;;;;6.85;4.60;;;;;;;;;;10554245;28;20122;-74
2023/12/07 05:21:07;;;;;;;7.35;4.68;;;;;;;;;;10546305;28;20119;-74
2023/12/07 05:26:10;;;;;;;5.28;4.05;;;;;;;;;;10551361;28;20506;-74
2023/12/07 05:31:18;;;;;;;6.38;4.43;;;;;;;;;;10567709;28;20071;-74
2023/12/07 05:36:22;;;;;;;6.53;4.60;;;;;;;;;;10558282;28;20057;-74
2023/12/07 05:41:26;;;;;;;6.15;4.57;;;;;;;;;;10550597;28;20044;-74
2023/12/07 05:46:30;;;;;;;7.10;4.85;;;;;;;;;;10553801;28;20043;-74
2023/12/07 05:51:34;;;;;;;7.40;4.90;;;;;;;;;;10555484;28;20587;-74
2023/12/07 05:56:37;;;;;;;6.18;4.90;;;;;;;;;;10561176;22;20043;-74
2023/12/07 06:01:42;;;;;;;7.03;4.78;;;;;;;;;;10539577;28;20135;-72
2023/12/07 06:06:46;;;;;;;7.28;4.45;;;;;;;;;;10554249;28;20070;-72
2023/12/07 06:11:49;;;;;;;6.88;4.95;;;;;;;;;;10547120;28;20074;-72
2023/12/07 06:16:55;;;;;;;7.15;4.93;;;;;;;;;;10543962;28;20050;-72
2023/12/07 06:21:58;;;;;;;7.17;5.30;;;;;;;;;;10544250;28;20543;-73
2023/12/07 06:27:02;;;;;;;6.75;4.85;;;;;;;;;;10543925;28;20110;-72
2023/12/07 06:32:07;;;;;;;8.23;5.78;;;;;;;;;;10546081;28;20058;-73
2023/12/07 06:37:11;;;;;;;7.32;5.15;;;;;;;;;;10559296;28;20043;-73
2023/12/07 06:42:15;;;;;;;6.80;4.95;;;;;;;;;;10542045;28;20042;-73
2023/12/07 06:47:19;;;;;;;7.32;5.28;;;;;;;;;;10532142;28;20036;-72
2023/12/07 06:52:22;;;;;;;6.95;5.25;;;;;;;;;;10540925;28;20047;-72
2023/12/07 06:57:26;;;;;;;7.38;5.15;;;;;;;;;;10576541;27;20043;-73
2023/12/07 07:02:30;;;;;;;7.13;4.95;;;;;;;;;;10574684;27;20056;-73
2023/12/07 07:07:34;;;;;;;8.52;5.32;;;;;;;;;;10604254;27;20496;-73
2023/12/07 07:12:37;;;;;;;8.23;5.40;;;;;;;;;;10584088;27;20045;-72
2023/12/07 07:17:42;;;;;;;8.65;5.70;;;;;;;;;;10565346;27;20031;-72
2023/12/07 07:22:45;;;;;;;7.95;5.50;;;;;;;;;;10592766;27;20518;-72
2023/12/07 07:27:49;;;;;;;9.65;6.32;;;;;;;;;;10585551;28;20088;-73
2023/12/07 07:32:53;;;;;;;10.85;7.45;;;;;;;;;;10596533;28;20035;-73
2023/12/07 07:37:56;;;;;;;10.45;7.13;;;;;;;;;;10586708;28;20040;-73
2023/12/07 07:43:00;;;;;;;9.02;6.07;;;;;;;;;;10563330;28;20042;-73
2023/12/07 07:48:05;;;;;;;8.52;5.63;;;;;;;;;;10592727;28;20053;-73
2023/12/07 07:53:08;;;;;;;9.52;5.97;;;;;;;;;;10580936;28;20039;-72
2023/12/07 07:58:11;;;;;;;9.93;5.63;;;;;;;;;;10580092;28;20508;-73
2023/12/07 08:03:16;;;;;;;9.95;6.55;;;;;;;;;;10608169;28;20049;-73
2023/12/07 08:08:19;;;;;;;10.05;6.60;;;;;;;;;;10592298;28;20028;-73
2023/12/07 08:13:22;;;;;;;10.43;7.05;;;;;;;;;;10592978;28;20058;-73
2023/12/07 08:18:27;;;;;;;9.38;6.35;;;;;;;;;;10589709;28;20138;-73
2023/12/07 08:23:31;;;;;;;7.50;5.05;;;;;;;;;;10577309;28;20115;-72
2023/12/07 08:28:34;;;;;;;8.27;5.63;;;;;;;;;;10597395;28;20043;-73
2023/12/07 08:33:39;;;;;;;7.28;5.05;;;;;;;;;;10594508;28;20126;-73
2023/12/07 08:38:42;;;;;;;6.97;4.45;;;;;;;;;;10610790;27;20043;-73
2023/12/07 08:43:45;;;;;;;6.38;4.60;;;;;;;;;;10606604;27;20449;-73
2023/12/07 08:48:50;;;;;;;6.90;5.65;;;;;;;;;;10608409;27;20108;-73
2023/12/07 08:53:54;;;;;;;5.55;4.30;;;;;;;;;;10603729;27;20058;-73
2023/12/07 08:58:59;;;;;;;8.47;5.60;;;;;;;;;;10608779;27;20035;-73
2023/12/07 09:04:05;;;;;;;7.18;4.68;;;;;;;;;;10592246;27;20051;-73
2023/12/07 09:09:08;;;;;;;6.10;4.55;;;;;;;;;;10609393;27;20119;-73
2023/12/07 09:14:11;;;;;;;7.68;5.07;;;;;;;;;;10576547;27;20051;-73
2023/12/07 09:19:16;;;;;;;6.32;4.47;;;;;;;;;;10599818;27;20058;-73
2023/12/07 09:24:19;;;;;;;4.95;3.40;;;;;;;;;;10605400;27;20050;-73
2023/12/07 09:29:22;;;;;;;7.57;4.40;;;;;;;;;;10598624;27;20250;-73
2023/12/07 09:34:27;;;;;;;5.85;3.47;;;;;;;;;;10578131;27;20139;-73
2023/12/07 09:39:30;;;;;;;6.40;4.95;;;;;;;;;;10569282;27;20062;-73
2023/12/07 09:44:34;;;;;;;8.40;4.60;;;;;;;;;;10581533;27;20051;-73
2023/12/07 09:49:38;;;;;;;6.68;4.35;;;;;;;;;;10597311;27;20031;-73
2023/12/07 09:54:42;;;;;;;6.38;4.32;;;;;;;;;;10586015;27;20047;-73
2023/12/07 09:59:46;;;;;;;6.47;4.47;;;;;;;;;;10591024;27;20056;-73
2023/12/07 10:05:06;;;;;;;5.55;4.38;;;;;;;;;;10596539;27;20040;-73
2023/12/07 10:10:11;;;;;;;5.63;4.20;;;;;;;;;;10590384;27;20522;-73
2023/12/07 10:15:15;;;;;;;6.60;4.10;;;;;;;;;;10590116;27;20051;-73
2023/12/07 10:20:23;;;;;;;4.05;3.38;;;;;;;;;;10589039;27;20043;-73
2023/12/07 10:25:27;;;;;;;7.13;4.90;;;;;;;;;;10589682;27;20055;-73
2023/12/07 10:30:31;;;;;;;5.03;3.92;;;;;;;;;;10573085;27;20126;-72
2023/12/07 10:35:40;;;;;;;5.07;3.70;;;;;;;;;;10580725;27;20423;-73
2023/12/07 10:40:43;;;;;;;4.30;3.58;;;;;;;;;;10583533;27;20043;-73
2023/12/07 10:45:47;;;;;;;5.82;3.67;;;;;;;;;;10593940;27;20051;-73
2023/12/07 10:50:55;;;;;;;5.43;4.03;;;;;;;;;;10589897;27;20035;-73
2023/12/07 10:56:02;;;;;;;8.15;4.15;;;;;;;;;;10583251;27;20035;-73
2023/12/07 11:01:09;;;;;;;4.63;3.90;;;;;;;;;;10591809;27;20039;-72
2023/12/07 11:06:14;;;;;;;4.60;3.45;;;;;;;;;;10603370;27;20410;-72
2023/12/07 11:11:25;;;;;;;5.00;3.30;;;;;;;;;;10563286;27;20039;-73
2023/12/07 11:16:33;;;;;;;3.33;2.83;;;;;;;;;;10596795;27;20047;-73
2023/12/07 11:21:37;;;;;;;4.20;3.15;;;;;;;;;;10581893;27;20156;-73
2023/12/07 11:26:44;;;;;;;3.70;2.85;;;;;;;;;;10582616;28;20040;-73
2023/12/07 11:31:48;;;;;;;3.95;3.08;;;;;;;;;;10597810;28;20455;-73
2023/12/07 11:36:53;;;;;;;4.50;3.35;;;;;;;;;;10587806;28;20039;-73
2023/12/07 11:42:06;;;;;;;6.22;3.53;;;;;;;;;;10599381;28;20403;-73
2023/12/07 11:47:10;;;;;;;5.30;3.63;;;;;;;;;;10590163;28;20051;-72
2023/12/07 11:52:16;;;;;;;5.18;3.78;;;;;;;;;;10584832;28;20079;-73
2023/12/07 11:57:19;;;;;;;4.43;3.30;;;;;;;;;;10584424;22;20125;-74
2023/12/07 12:02:22;;;;;;;4.10;2.55;;;;;;;;;;10563756;28;20373;-74
2023/12/07 12:07:27;;;;;;;4.82;3.55;;;;;;;;;;10571244;28;20046;-74
2023/12/07 12:12:34;;;;;;;5.25;3.20;;;;;;;;;;10573822;28;20042;-74
2023/12/07 12:17:37;;;;;;;3.72;2.90;;;;;;;;;;10577457;28;20048;-74
2023/12/07 12:22:42;;;;;;;3.88;2.80;;;;;;;;;;10578735;28;20100;-74
2023/12/07 12:27:47;;;;;;;3.97;2.83;;;;;;;;;;10568408;28;20055;-74
2023/12/07 12:32:50;;;;;;;6.00;3.75;;;;;;;;;;10579127;28;20070;-74
2023/12/07 12:37:56;;;;;;;3.55;2.70;;;;;;;;;;10578061;28;20122;-74
2023/12/07 12:43:00;;;;;;;4.87;2.67;;;;;;;;;;10575316;28;20043;-74
2023/12/07 12:48:03;;;;;;;6.47;4.78;;;;;;;;;;10577746;28;20116;-74
2023/12/07 12:53:10;;;;;;;6.50;4.35;;;;;;;;;;10574151;28;20110;-74
2023/12/07 12:58:13;;;;;;;6.63;4.13;;;;;;;;;;10567406;28;20396;-74
2023/12/07 13:03:17;;;;;;;5.13;3.60;;;;;;;;;;10573938;27;20035;-74
2023/12/07 13:08:21;;;;;;;4.95;3.85;;;;;;;;;;10568626;28;20142;-74
2023/12/07 13:13:25;;;;;;;4.40;3.10;;;;;;;;;;10570639;28;20058;-74
2023/12/07 13:18:28;;;;;;;3.63;2.78;;;;;;;;;;10566286;28;20177;-74
2023/12/07 13:23:32;;;;;;;3.75;2.63;;;;;;;;;;10568644;28;20086;-74
2023/12/07 13:28:36;;;;;;;5.25;3.83;;;;;;;;;;10568481;28;20039;-74
2023/12/07 13:33:40;;;;;;;3.72;3.13;;;;;;;;;;10576064;28;20635;-74
2023/12/07 13:38:47;;;;;;;5.35;3.45;;;;;;;;;;10570145;28;20040;-74
2023/12/07 13:43:51;;;;;;;5.43;3.37;;;;;;;;;;10573984;28;20043;-74
2023/12/07 13:48:54;;;;;;;3.80;2.88;;;;;;;;;;10577208;27;20293;-74
2023/12/07 13:53:59;;;;;;;4.50;3.45;;;;;;;;;;10568361;28;20031;-74
2023/12/07 13:59:03;;;;;;;4.25;3.08;;;;;;;;;;10567475;28;20079;-74
2023/12/07 14:04:07;;;;;;;4.05;3.08;;;;;;;;;;10561876;28;20653;-74
2023/12/07 14:09:13;;;;;;;4.03;2.90;;;;;;;;;;10571080;28;20044;-74
2023/12/07 14:14:16;;;;;;;5.93;4.15;;;;;;;;;;10572521;28;20052;-74
2023/12/07 14:19:20;;;;;;;8.65;5.20;;;;;;;;;;10573728;28;20489;-74
2023/12/07 14:24:25;;;;;;;9.85;5.82;;;;;;;;;;10574012;28;20126;-74
2023/12/07 14:29:28;;;;;;;7.27;4.80;;;;;;;;;;10573006;28;20518;-74
2023/12/07 14:34:31;;;;;;;9.07;5.63;;;;;;;;;;10573546;27;20040;-74
2023/12/07 14:39:37;;;;;;;6.65;4.55;;;;;;;;;;10571950;28;20458;-74
2023/12/07 14:44:40;;;;;;;6.65;4.57;;;;;;;;;;10566931;28;20031;-74
2023/12/07 14:49:43;;;;;;;6.15;4.32;;;;;;;;;;10572481;28;20399;-74
2023/12/07 14:54:48;;;;;;;6.20;3.67;;;;;;;;;;10571565;28;20111;-74
2023/12/07 14:59:53;;;;;;;6.63;4.15;;;;;;;;;;10567945;28;20032;-74
2023/12/07 15:04:56;;;;;;;6.15;4.35;;;;;;;;;;10566258;28;20107;-74
2023/12/07 15:10:03;;;;;;;5.05;3.38;;;;;;;;;;10571782;28;20132;-74
2023/12/07 15:15:09;;;;;;;5.07;3.23;;;;;;;;;;10568567;28;20032;-73
2023/12/07 15:20:12;;;;;;;5.28;3.40;;;;;;;;;;10571519;28;20661;-74
2023/12/07 15:25:17;;;;;;;4.60;3.67;;;;;;;;;;10565224;28;20104;-73
2023/12/07 15:30:23;;;;;;;4.72;3.60;;;;;;;;;;10569416;28;20040;-73
2023/12/07 15:35:26;;;;;;;7.63;4.33;;;;;;;;;;10571537;28;20036;-73
2023/12/07 15:40:31;;;;;;;7.72;4.70;;;;;;;;;;10564979;28;20472;-73
2023/12/07 15:45:34;;;;;;;10.25;5.75;;;;;;;;;;10564672;28;20119;-74
2023/12/07 15:50:38;;;;;;;7.20;4.85;;;;;;;;;;10571724;28;20504;-73
2023/12/07 15:55:42;;;;;;;7.78;4.70;;;;;;;;;;10574294;28;20037;-73
2023/12/07 16:00:46;;;;;;;10.55;5.70;;;;;;;;;;10573379;28;20126;-73
2023/12/07 16:05:49;;;;;;;13.07;6.97;;;;;;;;;;10571082;28;20051;-74
2023/12/07 16:10:53;;;;;;;9.43;5.72;;;;;;;;;;10579002;28;20079;-73
2023/12/07 16:15:57;;;;;;;15.00;7.22;;;;;;;;;;10579407;28;20036;-73
2023/12/07 16:21:00;;;;;;;11.27;6.65;;;;;;;;;;10569014;28;20039;-73
2023/12/07 16:26:05;;;;;;;10.88;6.28;;;;;;;;;;10578651;28;20047;-73
2023/12/07 16:31:08;;;;;;;10.55;6.00;;;;;;;;;;10578631;28;20036;-73
2023/12/07 16:36:16;;;;;;;12.38;6.80;;;;;;;;;;10576163;28;20051;-73
2023/12/07 16:41:23;;;;;;;13.98;7.97;;;;;;;;;;10574324;28;20826;-74
2023/12/07 16:46:27;;;;;;;14.27;8.02;;;;;;;;;;10563542;28;20063;-73
2023/12/07 16:51:30;;;;;;;10.00;5.95;;;;;;;;;;10574657;28;20075;-74
2023/12/07 16:56:35;;;;;;;14.35;7.75;;;;;;;;;;10576978;28;20035;-74
2023/12/07 17:01:38;;;;;;;11.43;6.13;;;;;;;;;;10575011;28;20061;-74
2023/12/07 17:06:41;;;;;;;11.95;7.20;;;;;;;;;;10568501;27;20731;-74
2023/12/07 17:11:49;;;;;;;9.55;5.90;;;;;;;;;;10570977;28;20071;-74
2023/12/07 17:16:52;;;;;;;10.73;5.53;;;;;;;;;;10571726;28;20111;-73
2023/12/07 17:21:55;;;;;;;9.63;5.60;;;;;;;;;;10575697;28;20385;-74
2023/12/07 17:27:00;;;;;;;8.45;5.75;;;;;;;;;;10572168;28;20069;-73
2023/12/07 17:32:05;;;;;;;9.68;5.95;;;;;;;;;;10576202;28;20044;-74
2023/12/07 17:37:09;;;;;;;9.93;6.07;;;;;;;;;;10575054;27;20496;-74
2023/12/07 17:42:14;;;;;;;8.75;5.60;;;;;;;;;;10572168;28;20478;-73
2023/12/07 17:47:17;;;;;;;9.63;6.35;;;;;;;;;;10573953;28;20036;-73
2023/12/07 17:52:20;;;;;;;10.68;5.97;;;;;;;;;;10569024;28;20034;-73
2023/12/07 17:57:26;;;;;;;11.18;6.40;;;;;;;;;;10535341;22;20399;-74
2023/12/07 18:02:29;;;;;;;8.07;5.70;;;;;;;;;;10532242;28;20718;-75
2023/12/07 18:07:32;;;;;;;7.97;5.50;;;;;;;;;;10541719;28;20558;-75
2023/12/07 18:12:37;;;;;;;10.13;6.43;;;;;;;;;;10533394;28;20039;-75
2023/12/07 18:17:40;;;;;;;10.40;5.75;;;;;;;;;;10535333;28;20054;-75
2023/12/07 18:22:43;;;;;;;7.88;5.60;;;;;;;;;;10532385;28;20107;-75
2023/12/07 18:27:47;;;;;;;7.88;5.75;;;;;;;;;;10536756;28;20119;-75
2023/12/07 18:32:51;;;;;;;7.53;5.43;;;;;;;;;;10532566;28;20040;-74
2023/12/07 18:37:54;;;;;;;8.10;5.72;;;;;;;;;;10529129;28;20063;-74
2023/12/07 18:42:58;;;;;;;8.38;5.22;;;;;;;;;;10531466;28;20040;-75
2023/12/07 18:48:02;;;;;;;11.32;7.13;;;;;;;;;;10544025;28;20058;-74
2023/12/07 18:53:06;;;;;;;12.77;8.25;;;;;;;;;;10529497;28;20036;-74
2023/12/07 18:58:10;;;;;;;7.75;5.20;;;;;;;;;;10525478;28;20050;-74
2023/12/07 19:03:13;;;;;;;9.48;6.28;;;;;;;;;;10541351;28;20038;-74
2023/12/07 19:08:17;;;;;;;9.02;5.57;;;;;;;;;;10529056;28;20046;-74
2023/12/07 19:13:21;;;;;;;9.38;5.18;;;;;;;;;;10530374;28;20042;-74
2023/12/07 19:18:24;;;;;;;8.43;5.07;;;;;;;;;;10525161;28;20066;-74
2023/12/07 19:23:28;;;;;;;10.45;7.03;;;;;;;;;;10529296;28;20036;-74
2023/12/07 19:28:33;;;;;;;7.55;5.45;;;;;;;;;;10526246;28;20075;-74
2023/12/07 19:33:37;;;;;;;9.07;6.05;;;;;;;;;;10540708;28;20071;-74
2023/12/07 19:38:40;;;;;;;6.55;4.85;;;;;;;;;;10524247;28;20036;-75
2023/12/07 19:43:45;;;;;;;10.55;6.40;;;;;;;;;;10535646;28;20065;-74
2023/12/07 19:48:48;;;;;;;6.80;5.00;;;;;;;;;;10530947;28;20036;-74
2023/12/07 19:53:52;;;;;;;9.40;6.03;;;;;;;;;;10526062;28;20036;-74
2023/12/07 19:58:57;;;;;;;7.95;5.30;;;;;;;;;;10531684;28;20066;-74
2023/12/07 20:04:00;;;;;;;8.52;6.32;;;;;;;;;;10537039;28;20112;-74
2023/12/07 20:09:03;;;;;;;8.90;6.35;;;;;;;;;;10537440;28;20048;-74
2023/12/07 20:14:08;;;;;;;10.75;7.40;;;;;;;;;;10533536;28;20763;-74
2023/12/07 20:19:11;;;;;;;8.52;6.22;;;;;;;;;;10531288;28;20131;-74
2023/12/07 20:24:15;;;;;;;9.35;6.00;;;;;;;;;;10532981;28;20063;-74
2023/12/07 20:29:20;;;;;;;8.23;5.65;;;;;;;;;;10533508;28;20040;-74
2023/12/07 20:34:24;;;;;;;6.90;4.80;;;;;;;;;;10542655;28;20054;-74
2023/12/07 20:39:27;;;;;;;7.35;4.93;;;;;;;;;;10540381;28;20044;-74
2023/12/07 20:44:31;;;;;;;6.47;4.80;;;;;;;;;;10545316;28;20043;-74
2023/12/07 20:49:35;;;;;;;6.70;4.60;;;;;;;;;;10535595;28;20032;-75
2023/12/07 20:54:39;;;;;;;7.03;5.45;;;;;;;;;;10539741;28;20669;-74
2023/12/07 20:59:44;;;;;;;7.43;4.93;;;;;;;;;;10539555;28;20053;-74
2023/12/07 21:04:47;;;;;;;7.47;5.10;;;;;;;;;;10534876;28;20030;-74
2023/12/07 21:09:51;;;;;;;11.13;6.90;;;;;;;;;;10538924;28;20071;-74
2023/12/07 21:14:55;;;;;;;12.00;8.27;;;;;;;;;;10534284;28;20032;-75
2023/12/07 21:19:58;;;;;;;13.73;7.75;;;;;;;;;;10531623;28;20480;-72
2023/12/07 21:25:03;;;;;;;10.85;7.75;;;;;;;;;;10534194;28;20051;-73
2023/12/07 21:30:09;;;;;;;11.70;8.25;;;;;;;;;;10521402;28;20054;-72
2023/12/07 21:35:13;;;;;;;12.85;8.38;;;;;;;;;;10533726;28;20091;-73
2023/12/07 21:40:16;;;;;;;11.32;7.55;;;;;;;;;;10534866;28;20053;-73
2023/12/07 21:45:21;;;;;;;13.45;7.93;;;;;;;;;;10535641;28;20036;-73
2023/12/07 21:50:24;;;;;;;10.77;6.97;;;;;;;;;;10532046;28;20109;-73
2023/12/07 21:55:27;;;;;;;8.93;5.95;;;;;;;;;;10532386;28;20407;-73
2023/12/07 22:00:32;;;;;;;9.95;6.45;;;;;;;;;;10529406;28;20407;-73
2023/12/07 22:05:36;;;;;;;9.15;6.03;;;;;;;;;;10530686;28;20041;-73
2023/12/07 22:10:39;;;;;;;10.45;6.90;;;;;;;;;;10528637;28;20127;-72
2023/12/07 22:15:44;;;;;;;11.85;7.88;;;;;;;;;;10529841;28;20036;-73
2023/12/07 22:20:49;;;;;;;10.80;8.05;;;;;;;;;;10532121;28;20047;-73
2023/12/07 22:25:52;;;;;;;13.50;8.48;;;;;;;;;;10534584;28;20079;-73
2023/12/07 22:30:57;;;;;;;12.13;8.05;;;;;;;;;;10515561;28;20040;-73
2023/12/07 22:36:00;;;;;;;12.02;8.15;;;;;;;;;;10529576;28;20072;-73
2023/12/07 22:41:04;;;;;;;10.77;7.30;;;;;;;;;;10530869;28;20075;-73
2023/12/07 22:46:08;;;;;;;9.95;6.82;;;;;;;;;;10519185;28;20468;-73
2023/12/07 22:51:12;;;;;;;12.73;8.30;;;;;;;;;;10535464;28;20505;-73
2023/12/07 22:56:15;;;;;;;12.00;7.85;;;;;;;;;;10533241;28;20686;-73
2023/12/07 23:01:20;;;;;;;11.50;7.43;;;;;;;;;;10530097;28;20044;-73
2023/12/07 23:06:23;;;;;;;9.73;6.47;;;;;;;;;;10533976;28;20046;-73
2023/12/07 23:11:27;;;;;;;7.38;5.28;;;;;;;;;;10533034;28;20073;-73
2023/12/07 23:16:31;;;;;;;13.73;7.85;;;;;;;;;;10531163;28;20115;-73
2023/12/07 23:21:35;;;;;;;12.93;8.00;;;;;;;;;;10525911;28;20039;-73
2023/12/07 23:26:41;;;;;;;11.40;7.03;;;;;;;;;;10529855;28;20032;-73
2023/12/07 23:31:46;;;;;;;11.27;7.75;;;;;;;;;;10528863;28;20059;-73
2023/12/07 23:36:49;;;;;;;11.45;7.30;;;;;;;;;;10529052;28;20036;-73
2023/12/07 23:41:53;;;;;;;10.50;7.63;;;;;;;;;;10516967;28;20044;-73
2023/12/07 23:46:57;;;;;;;12.80;8.07;;;;;;;;;;10528998;28;20247;-74
2023/12/07 23:52:01;;;;;;;9.48;6.80;;;;;;;;;;10535314;28;20044;-73
2023/12/07 23:57:04;;;;;;;10.18;6.35;;;;;;;;;;10535634;28;20054;-73
